Time;durP1;ratioP1;P1;durP2;ratioP2;P2;SDS_P1;SDS_P2;PMS_P1;PMS_P2;Temp;Humidity;BMP_temperature;BMP_pressure;BME280_temperature;BME280_humidity;BME280_pressure;Samples;Min_cycle;Max_cycle;Signal;HPM_P1;HPM_P2
2022/06/14 00:00:55;;;;;;;1.80;1.20;;;;;;;13.35;72.02;98135.31;6214230;28;20239;-86
2022/06/14 00:04:00;;;;;;;3.83;1.37;;;;;;;13.38;72.56;98136.81;6240076;28;20239;-86
2022/06/14 00:07:03;;;;;;;3.17;1.50;;;;;;;13.28;72.60;98137.59;6251431;28;20571;-85
2022/06/14 00:10:05;;;;;;;1.60;1.50;;;;;;;13.26;72.68;98131.63;6240638;28;20598;-85
2022/06/14 00:13:08;;;;;;;2.60;1.80;;;;;;;13.21;72.92;98141.75;6238902;28;20301;-85
2022/06/14 00:16:11;;;;;;;1.97;1.70;;;;;;;13.22;73.60;98145.25;6223033;28;20239;-85
2022/06/14 00:19:13;;;;;;;2.67;1.60;;;;;;;13.15;73.33;98154.69;6227950;28;20235;-88
2022/06/14 00:22:15;;;;;;;2.97;1.40;;;;;;;13.05;73.23;98151.91;6236397;28;20227;-85
2022/06/14 00:25:31;;;;;;;2.43;1.67;;;;;;;13.02;73.44;98141.56;6234603;28;20235;-85
2022/06/14 00:28:34;;;;;;;4.50;1.80;;;;;;;12.97;73.57;98142.94;6220206;28;20318;-85
2022/06/14 00:31:36;;;;;;;2.83;1.53;;;;;;;12.86;74.37;98130.56;6252423;28;20259;-85
2022/06/14 00:34:38;;;;;;;4.20;1.70;;;;;;;12.78;74.34;98146.22;6236196;28;20246;-85
2022/06/14 00:37:45;;;;;;;2.80;1.80;;;;;;;12.74;75.24;98143.00;6232931;28;20227;-85
2022/06/14 00:40:57;;;;;;;4.10;1.90;;;;;;;12.73;74.48;98148.41;6228919;28;20224;-85
2022/06/14 00:44:00;;;;;;;2.20;1.57;;;;;;;12.67;75.02;98152.41;6236114;28;20710;-85
2022/06/14 00:47:15;;;;;;;3.57;1.77;;;;;;;12.69;74.79;98133.72;6236864;28;20230;-87
2022/06/14 00:50:22;;;;;;;3.30;1.67;;;;;;;12.68;75.21;98130.25;6258419;28;20239;-85
2022/06/14 00:53:33;;;;;;;2.70;1.50;;;;;;;12.63;75.02;98140.38;6258348;28;20227;-87
2022/06/14 00:56:57;;;;;;;2.13;1.50;;;;;;;12.61;75.06;98144.13;6211627;28;20231;-85
2022/06/14 01:00:04;;;;;;;5.07;1.77;;;;;;;12.58;75.14;98147.84;6234973;28;20259;-87
2022/06/14 01:03:16;;;;;;;3.50;1.57;;;;;;;12.61;74.98;98142.31;6209861;28;20601;-87
2022/06/14 01:06:50;;;;;;;3.93;2.00;;;;;;;12.59;75.01;98136.28;6215675;28;20220;-87
2022/06/14 01:10:02;;;;;;;3.93;1.67;;;;;;;12.46;75.17;98152.34;6223994;28;20694;-87
2022/06/14 01:13:05;;;;;;;3.60;1.57;;;;;;;12.43;74.80;98149.94;6219519;28;20601;-87
2022/06/14 01:16:10;;;;;;;3.10;1.80;;;;;;;12.42;74.94;98145.59;6220192;28;20327;-86
2022/06/14 01:19:25;;;;;;;2.97;1.80;;;;;;;12.38;75.04;98154.75;6235861;28;20227;-86
2022/06/14 01:22:29;;;;;;;3.67;1.70;;;;;;;12.38;75.30;98148.59;6253834;28;20731;-86
2022/06/14 01:25:37;;;;;;;1.70;1.60;;;;;;;12.39;75.59;98129.13;6236228;28;20231;-86
2022/06/14 01:28:43;;;;;;;3.80;2.07;;;;;;;12.44;75.75;98141.03;6211380;28;20560;-86
2022/06/14 01:31:47;;;;;;;3.43;1.60;;;;;;;12.45;75.25;98140.06;6224933;28;20246;-86
2022/06/14 01:34:53;;;;;;;2.10;1.73;;;;;;;12.49;75.69;98138.00;6218957;28;20247;-87
2022/06/14 01:37:57;;;;;;;3.73;1.90;;;;;;;12.50;74.77;98142.34;6235010;28;20260;-86
2022/06/14 01:40:59;;;;;;;2.40;2.00;;;;;;;12.51;75.41;98147.50;6227384;28;20233;-87
2022/06/14 01:44:30;;;;;;;2.00;1.73;;;;;;;12.50;74.69;98139.69;6222172;28;20235;-87
2022/06/14 01:47:44;;;;;;;2.13;1.70;;;;;;;12.49;74.75;98145.94;6257740;28;20230;-87
2022/06/14 01:54:24;;;;;;;4.97;2.10;;;;;;;12.45;75.30;98145.38;6256299;28;20231;-87
2022/06/14 01:57:40;;;;;;;2.63;1.70;;;;;;;12.44;75.50;98148.13;6239994;28;20238;-87
2022/06/14 02:00:52;;;;;;;2.17;1.57;;;;;;;12.42;75.94;98145.59;6239649;28;20595;-87
2022/06/14 02:07:40;;;;;;;3.43;1.87;;;;;;;12.45;75.25;98155.13;6239213;28;20231;-87
2022/06/14 02:10:50;;;;;;;2.77;1.57;;;;;;;12.45;75.36;98150.66;6239690;28;20241;-86
2022/06/14 02:14:24;;;;;;;3.40;2.00;;;;;;;12.48;75.36;98163.63;6240410;28;20238;-87
2022/06/14 02:18:10;;;;;;;3.03;1.80;;;;;;;12.46;75.69;98157.66;6239690;28;20231;-86
2022/06/14 02:21:37;;;;;;;2.73;2.00;;;;;;;12.42;75.55;98164.13;6227046;28;20273;-87
2022/06/14 02:24:48;;;;;;;4.80;2.33;;;;;;;12.38;75.59;98164.47;6254362;28;20239;-87
2022/06/14 02:27:53;;;;;;;4.50;1.90;;;;;;;12.35;75.59;98164.75;6232267;28;20825;-87
2022/06/14 02:31:00;;;;;;;4.30;1.97;;;;;;;12.36;75.74;98164.63;6238738;28;20245;-87
2022/06/14 02:34:12;;;;;;;3.23;2.00;;;;;;;12.35;75.90;98164.75;6231696;28;20236;-87
2022/06/14 02:37:23;;;;;;;3.43;1.80;;;;;;;12.37;75.92;98174.25;6198275;28;20232;-86
2022/06/14 02:40:32;;;;;;;2.93;2.10;;;;;;;12.34;75.74;98171.84;6234625;28;20577;-86
2022/06/14 02:43:45;;;;;;;2.90;1.87;;;;;;;12.32;75.99;98176.41;6222507;28;20241;-84
2022/06/14 02:47:11;;;;;;;2.70;1.83;;;;;;;12.28;75.67;98182.91;6238505;28;20270;-87
2022/06/14 02:50:20;;;;;;;2.23;1.70;;;;;;;12.26;76.00;98190.16;6247470;28;20238;-85
2022/06/14 02:53:34;;;;;;;3.53;2.20;;;;;;;12.24;75.84;98183.28;6213540;28;20231;-86
2022/06/14 02:56:56;;;;;;;1.87;1.63;;;;;;;12.18;76.16;98190.72;6225012;28;20230;-86
2022/06/14 03:00:13;;;;;;;3.07;1.97;;;;;;;12.12;75.63;98195.66;6242676;28;20249;-86
2022/06/14 03:03:27;;;;;;;3.00;1.87;;;;;;;12.03;75.87;98201.69;6229284;28;20266;-86
2022/06/14 03:06:37;;;;;;;2.20;1.80;;;;;;;11.95;75.54;98197.00;6214033;28;20618;-86
2022/06/14 03:09:42;;;;;;;2.87;1.77;;;;;;;11.88;75.47;98198.41;6213774;28;20599;-84
2022/06/14 03:13:02;;;;;;;1.73;1.63;;;;;;;11.81;76.10;98208.63;6230489;28;20219;-86
2022/06/14 03:16:24;;;;;;;3.07;1.80;;;;;;;11.79;75.71;98212.34;6197843;28;20236;-85
2022/06/14 03:19:44;;;;;;;3.83;1.90;;;;;;;11.68;75.94;98215.78;6211972;28;20232;-85
2022/06/14 03:23:07;;;;;;;2.60;1.73;;;;;;;11.62;76.21;98210.97;6231271;28;20732;-85
2022/06/14 03:26:22;;;;;;;1.87;1.77;;;;;;;11.58;76.50;98216.63;6198026;28;20234;-89
2022/06/14 03:29:35;;;;;;;2.07;1.83;;;;;;;11.53;76.44;98219.59;6204951;28;20242;-88
2022/06/14 03:32:45;;;;;;;4.73;2.20;;;;;;;11.53;76.78;98218.75;6191341;28;20746;-86
2022/06/14 03:35:52;;;;;;;3.93;2.23;;;;;;;11.55;76.73;98216.84;6226707;28;20826;-85
2022/06/14 03:39:03;;;;;;;3.30;1.77;;;;;;;11.53;76.42;98224.03;6269603;28;20228;-85
2022/06/14 03:42:08;;;;;;;1.80;1.57;;;;;;;11.46;76.62;98219.22;6267471;28;20283;-86
2022/06/14 03:45:17;;;;;;;3.33;2.10;;;;;;;11.43;76.74;98219.44;6215236;28;20701;-85
2022/06/14 03:48:20;;;;;;;2.97;2.03;;;;;;;11.43;77.17;98219.44;6208238;28;20366;-86
2022/06/14 03:52:03;;;;;;;3.33;1.93;;;;;;;11.37;77.26;98219.91;6212975;28;21154;-87
2022/06/14 03:55:27;;;;;;;2.90;2.10;;;;;;;11.27;77.89;98226.84;6159371;28;20246;-86
2022/06/14 03:58:47;;;;;;;4.83;2.20;;;;;;;11.23;77.66;98233.31;6162507;28;20273;-86
2022/06/14 04:02:15;;;;;;;2.87;1.83;;;;;;;11.21;78.05;98240.50;6161879;28;20236;-87
2022/06/14 04:05:32;;;;;;;5.30;2.13;;;;;;;11.25;78.18;98234.03;6202283;28;20289;-87
2022/06/14 04:09:23;;;;;;;3.00;1.70;;;;;;;11.23;78.19;98235.94;6202317;28;20251;-86
2022/06/14 04:12:39;;;;;;;2.83;2.00;;;;;;;11.16;78.23;98244.44;6134202;28;20706;-96
2022/06/14 04:15:48;;;;;;;3.77;1.90;;;;;;;11.10;78.70;98249.19;6185863;28;20235;-88
2022/06/14 04:19:03;;;;;;;2.90;2.23;;;;;;;11.06;79.09;98237.19;6187070;28;20239;-92
2022/06/14 04:22:31;;;;;;;4.13;2.30;;;;;;;11.00;79.53;98237.63;6185741;28;20228;-90
2022/06/14 04:26:08;;;;;;;4.47;2.07;;;;;;;10.95;79.55;98237.13;6222326;28;20237;-92
2022/06/14 04:29:55;;;;;;;3.23;2.30;;;;;;;10.97;79.70;98245.78;6168009;28;20245;-92
2022/06/14 04:33:06;;;;;;;2.97;2.50;;;;;;;10.97;80.40;98245.78;6159713;28;20244;-89
2022/06/14 04:36:17;;;;;;;2.47;2.13;;;;;;;10.99;80.26;98248.28;6226319;28;20732;-91
2022/06/14 04:39:34;;;;;;;3.20;2.23;;;;;;;11.02;80.75;98253.38;6212364;28;20222;-89
2022/06/14 04:43:01;;;;;;;3.83;2.50;;;;;;;11.10;80.49;98245.72;6209595;28;20230;-88
2022/06/14 04:46:19;;;;;;;4.00;2.17;;;;;;;11.18;80.47;98250.47;6224241;28;20244;-91
2022/06/14 04:49:35;;;;;;;3.20;2.47;;;;;;;11.24;80.51;98256.13;6213669;28;20238;-92
2022/06/14 04:52:43;;;;;;;4.90;2.30;;;;;;;11.34;80.91;98251.00;6244623;28;20400;-89
2022/06/14 04:55:53;;;;;;;5.53;2.33;;;;;;;11.40;80.20;98263.75;6188669;28;21013;-88
2022/06/14 04:58:58;;;;;;;3.97;2.33;;;;;;;11.48;80.41;98268.50;6201521;28;20234;-88
2022/06/14 05:02:25;;;;;;;5.17;2.60;;;;;;;11.56;80.91;98268.75;6238429;28;20226;-92
2022/06/14 05:05:34;;;;;;;3.27;2.60;;;;;;;11.60;80.93;98262.25;6211562;28;20229;-88
2022/06/14 05:08:58;;;;;;;2.30;2.10;;;;;;;11.71;80.85;98259.66;6210995;28;20302;-87
2022/06/14 05:12:07;;;;;;;5.57;2.47;;;;;;;11.83;80.87;98264.91;6209966;28;20238;-89
2022/06/14 05:15:29;;;;;;;3.60;2.17;;;;;;;11.98;80.24;98262.06;6195251;28;20229;-89
2022/06/14 05:18:39;;;;;;;3.33;2.17;;;;;;;12.15;79.41;98258.94;6204468;28;20224;-90
2022/06/14 05:21:41;;;;;;;3.83;2.00;;;;;;;12.27;80.08;98263.28;6218530;28;20320;-89
2022/06/14 05:24:43;;;;;;;4.67;2.27;;;;;;;12.38;79.73;98252.69;6216756;28;20233;-90
2022/06/14 05:27:54;;;;;;;5.93;2.77;;;;;;;12.50;79.49;98258.81;6234899;28;20231;-91
2022/06/14 05:31:26;;;;;;;3.80;1.80;;;;;;;12.61;78.64;98257.97;6200509;28;20228;-91
2022/06/14 05:35:19;;;;;;;5.43;2.23;;;;;;;12.77;76.22;98261.09;6198021;28;20293;-91
2022/06/14 05:38:36;;;;;;;5.80;1.93;;;;;;;12.89;75.29;98258.28;6134036;28;20306;-89
2022/06/14 05:41:51;;;;;;;3.50;2.10;;;;;;;13.04;74.03;98258.88;6133418;28;20755;-89
2022/06/14 05:44:59;;;;;;;4.47;2.00;;;;;;;13.18;72.23;98266.56;6149712;28;20295;-89
2022/06/14 05:48:08;;;;;;;5.70;2.50;;;;;;;13.36;70.89;98269.53;6133450;28;20760;-89
2022/06/14 05:51:13;;;;;;;5.30;2.20;;;;;;;13.50;68.18;98252.47;6109893;29;20215;-90
2022/06/14 05:54:50;;;;;;;4.77;2.07;;;;;;;13.66;66.39;98256.41;6131301;28;20876;-89
2022/06/14 05:57:59;;;;;;;4.30;2.20;;;;;;;13.73;67.36;98259.38;6093316;29;20235;-89
2022/06/14 06:01:30;;;;;;;5.43;1.70;;;;;;;13.82;67.10;98263.06;6093526;29;20240;-89
2022/06/14 06:05:10;;;;;;;3.87;1.80;;;;;;;13.87;66.22;98256.41;6109161;29;20803;-91
2022/06/14 06:08:25;;;;;;;4.23;2.00;;;;;;;14.02;65.31;98259.56;6094239;29;20274;-94
2022/06/14 06:12:09;;;;;;;3.10;1.93;;;;;;;14.18;65.90;98259.06;6069867;29;20228;-87
2022/06/14 06:15:28;;;;;;;4.23;1.63;;;;;;;14.34;65.18;98259.47;6087627;29;20228;-88
2022/06/14 06:19:07;;;;;;;3.97;1.90;;;;;;;14.45;65.34;98263.88;6093093;29;20220;-91
2022/06/14 06:22:18;;;;;;;4.00;1.87;;;;;;;14.60;65.01;98259.88;6055370;29;20242;-91
2022/06/14 06:25:35;;;;;;;2.60;1.83;;;;;;;14.77;64.31;98264.56;6085573;29;20294;-91
2022/06/14 06:28:45;;;;;;;5.97;1.63;;;;;;;14.97;63.16;98265.47;6085054;29;20242;-95
2022/06/14 06:31:48;;;;;;;3.73;1.57;;;;;;;15.14;62.27;98262.97;6058422;29;20236;-90
2022/06/14 06:34:51;;;;;;;6.30;2.03;;;;;;;15.42;61.86;98271.13;6150630;28;20237;-93
2022/06/14 06:38:17;;;;;;;3.33;1.90;;;;;;;15.73;59.59;98269.19;6186605;28;20245;-96
2022/06/14 06:45:07;;;;;;;5.20;1.90;;;;;;;16.35;57.90;98266.00;6166593;28;20254;-92
2022/06/14 06:48:15;;;;;;;3.53;1.67;;;;;;;16.50;56.80;98271.69;6171056;28;20232;-95
2022/06/14 06:51:24;;;;;;;5.33;2.20;;;;;;;16.69;55.79;98270.81;6200330;28;20628;-93
2022/06/14 06:54:34;;;;;;;5.93;1.93;;;;;;;16.79;54.75;98271.59;6180559;28;20225;-92
2022/06/14 06:57:39;;;;;;;2.97;1.80;;;;;;;17.03;54.89;98273.75;6178248;28;20228;-92
2022/06/14 07:00:43;;;;;;;2.47;1.77;;;;;;;17.23;53.99;98275.28;6213704;28;20250;-91
2022/06/14 07:04:15;;;;;;;3.80;2.03;;;;;;;17.55;54.14;98275.63;6214994;28;20281;-94
2022/06/14 07:07:17;;;;;;;5.63;2.03;;;;;;;17.83;52.64;98262.22;6213493;28;20233;-91
2022/06/14 07:10:23;;;;;;;3.00;1.87;;;;;;;18.07;51.33;98276.59;6199577;28;20254;-92
2022/06/14 07:13:43;;;;;;;2.40;1.50;;;;;;;18.41;50.08;98271.31;6199965;28;20236;-91
2022/06/14 07:17:03;;;;;;;2.70;1.70;;;;;;;18.58;49.48;98277.63;6204429;28;20261;-90
2022/06/14 07:20:29;;;;;;;4.23;1.80;;;;;;;18.91;49.72;98280.47;6169315;28;20233;-91
2022/06/14 07:23:43;;;;;;;4.37;1.97;;;;;;;19.19;49.06;98281.91;6200796;28;20319;-91
2022/06/14 07:26:54;;;;;;;2.70;1.40;;;;;;;19.39;47.63;98285.13;6187591;28;20710;-92
2022/06/14 07:30:06;;;;;;;7.23;2.03;;;;;;;19.52;47.33;98280.19;6204880;28;20251;-95
2022/06/14 07:33:10;;;;;;;3.07;2.10;;;;;;;19.89;46.08;98266.31;6184656;28;20612;-92
2022/06/14 07:36:35;;;;;;;2.03;1.50;;;;;;;20.08;46.18;98273.16;6214746;28;20215;-92
2022/06/14 07:40:08;;;;;;;2.23;1.70;;;;;;;19.90;46.23;98266.16;6184910;28;20225;-93
2022/06/14 07:43:17;;;;;;;4.43;1.90;;;;;;;20.15;45.17;98264.31;6211822;28;20228;-94
2022/06/14 07:46:35;;;;;;;4.83;1.83;;;;;;;20.40;45.08;98259.75;6205752;28;20260;-92
2022/06/14 07:50:23;;;;;;;2.70;1.90;;;;;;;20.88;42.90;98264.13;6201723;28;20722;-93
2022/06/14 07:53:36;;;;;;;2.93;1.80;;;;;;;20.95;43.76;98267.81;6131609;28;20250;-90
2022/06/14 07:56:54;;;;;;;3.03;1.63;;;;;;;21.28;43.98;98260.47;6146615;28;20241;-95
2022/06/14 08:31:26;;;;;;;6.00;1.90;;;;;;;22.91;41.31;98264.47;6223079;28;20236;-90
2022/06/14 08:34:48;;;;;;;4.43;1.73;;;;;;;23.26;39.89;98260.94;6199757;28;20590;-93
2022/06/14 08:38:20;;;;;;;4.13;1.80;;;;;;;23.60;40.92;98254.94;6194967;28;20726;-90
2022/06/14 08:41:39;;;;;;;3.07;1.63;;;;;;;23.73;39.43;98257.78;6204640;28;20366;-91
2022/06/14 08:44:53;;;;;;;2.43;1.73;;;;;;;24.16;38.51;98252.34;6236182;28;20270;-90
2022/06/14 08:48:18;;;;;;;4.27;1.77;;;;;;;23.99;37.69;98242.88;6222116;28;20378;-92
2022/06/14 08:51:34;;;;;;;4.30;1.97;;;;;;;24.28;37.43;98246.25;6191798;28;21372;-89
2022/06/14 08:55:14;;;;;;;2.43;1.70;;;;;;;24.59;36.49;98239.63;6215776;28;20227;-90
2022/06/14 08:58:29;;;;;;;3.10;1.63;;;;;;;24.79;37.04;98237.88;6253523;28;20231;-91
2022/06/14 09:01:41;;;;;;;4.27;1.97;;;;;;;25.26;35.84;98244.31;6201262;28;20224;-91
2022/06/14 09:04:55;;;;;;;3.00;2.07;;;;;;;25.44;35.75;98241.09;6223153;28;20310;-90
2022/06/14 09:08:35;;;;;;;3.38;1.63;;;;;;;25.66;33.76;98243.44;6216780;28;20603;-90
2022/06/14 09:12:02;;;;;;;4.38;2.30;;;;;;;25.19;34.61;98244.31;6200737;28;20224;-92
2022/06/14 09:15:45;;;;;;;2.05;1.60;;;;;;;25.16;35.01;98247.41;6239886;28;20227;-90
2022/06/14 09:18:53;;;;;;;5.88;2.50;;;;;;;25.55;35.42;98230.50;6211813;28;20720;-92
2022/06/14 09:22:16;;;;;;;6.65;1.80;;;;;;;25.16;35.10;98238.47;6241347;28;20229;-92
2022/06/14 09:25:32;;;;;;;4.20;2.03;;;;;;;24.54;37.04;98228.59;6239276;28;20308;-94
2022/06/14 09:28:46;;;;;;;2.75;1.60;;;;;;;25.21;36.14;98234.16;6205638;28;20316;-87
2022/06/14 09:32:06;;;;;;;3.35;1.85;;;;;;;25.78;35.02;98232.00;6215444;28;20327;-87
2022/06/14 09:36:00;;;;;;;2.00;1.63;;;;;;;26.09;33.60;98224.13;6231021;28;20629;-88
2022/06/14 09:39:39;;;;;;;6.80;2.40;;;;;;;26.15;34.28;98212.50;6215709;28;20652;-88
2022/06/14 09:43:11;;;;;;;3.20;1.77;;;;;;;26.50;34.28;98214.97;6214338;28;20232;-88
2022/06/14 09:46:31;;;;;;;2.40;1.75;;;;;;;26.50;33.77;98207.66;6214392;28;20235;-89
2022/06/14 09:50:13;;;;;;;4.55;1.80;;;;;;;25.77;33.89;98206.00;6215153;28;20230;-88
2022/06/14 09:53:44;;;;;;;3.67;2.00;;;;;;;26.24;33.32;98203.09;6165890;28;20238;-89
2022/06/14 09:57:14;;;;;;;2.92;1.60;;;;;;;26.80;33.19;98200.72;6196545;28;20731;-88
2022/06/14 10:00:36;;;;;;;3.83;2.00;;;;;;;27.14;31.82;98205.00;6203965;28;20248;-87
2022/06/14 10:03:58;;;;;;;6.55;1.50;;;;;;;27.17;33.46;98201.81;6210541;28;20240;-87
2022/06/14 10:07:11;;;;;;;3.88;2.30;;;;;;;27.84;32.44;98192.28;6214718;28;20605;-87
2022/06/14 10:10:42;;;;;;;3.30;2.13;;;;;;;27.27;30.77;98197.81;6213526;28;20742;-87
2022/06/14 10:14:18;;;;;;;4.28;1.95;;;;;;;27.47;30.87;98187.69;6214155;28;20232;-85
2022/06/14 10:17:59;;;;;;;2.92;2.22;;;;;;;27.24;29.49;98184.72;6213747;28;20330;-86
2022/06/14 10:21:14;;;;;;;3.60;2.20;;;;;;;27.11;31.32;98186.44;6230344;28;20718;-87
2022/06/14 10:24:40;;;;;;;2.45;1.73;;;;;;;27.69;32.14;98190.91;6231308;28;20303;-87
2022/06/14 10:28:13;;;;;;;5.18;2.25;;;;;;;28.52;29.79;98186.03;6197722;28;20228;-88
2022/06/14 10:31:42;;;;;;;2.55;1.70;;;;;;;27.71;31.00;98183.41;6225042;28;20608;-86
2022/06/14 10:35:01;;;;;;;3.70;1.67;;;;;;;27.88;31.56;98177.19;6229380;28;20309;-86
2022/06/14 10:38:29;;;;;;;2.08;1.80;;;;;;;28.47;31.38;98175.00;6230527;28;20677;-87
2022/06/14 10:41:40;;;;;;;4.70;1.95;;;;;;;28.56;32.78;98179.91;6210709;28;20227;-87
2022/06/14 10:44:51;;;;;;;2.58;1.92;;;;;;;28.96;31.72;98165.88;6230882;28;20598;-87
2022/06/14 10:48:19;;;;;;;2.35;1.52;;;;;;;28.56;30.10;98166.34;6247925;28;20232;-87
2022/06/14 10:51:27;;;;;;;3.08;1.95;;;;;;;28.30;30.45;98166.63;6221866;28;20781;-87
2022/06/14 10:54:29;;;;;;;2.75;2.00;;;;;;;27.82;30.15;98171.84;6212963;28;20759;-87
2022/06/14 10:58:04;;;;;;;3.83;1.90;;;;;;;28.05;29.93;98171.22;6205902;28;20597;-87
2022/06/14 11:01:28;;;;;;;3.80;1.95;;;;;;;27.65;29.94;98163.38;6245845;28;20310;-87
2022/06/14 11:04:37;;;;;;;4.03;2.00;;;;;;;26.84;32.57;98168.63;6246527;28;20228;-86
2022/06/14 11:08:10;;;;;;;3.92;1.75;;;;;;;27.78;29.78;98162.47;6213834;28;20375;-87
2022/06/14 11:11:36;;;;;;;3.25;2.15;;;;;;;27.83;29.76;98170.78;6222472;28;20234;-88
2022/06/14 11:14:51;;;;;;;3.00;1.77;;;;;;;28.18;30.42;98160.25;6225341;28;20235;-87
2022/06/14 11:18:17;;;;;;;3.45;2.00;;;;;;;28.54;28.87;98159.50;6229749;28;20224;-87
2022/06/14 11:21:40;;;;;;;4.57;1.98;;;;;;;27.18;30.87;98164.72;6205280;28;20231;-87
2022/06/14 11:24:48;;;;;;;3.80;2.00;;;;;;;27.77;31.27;98158.91;6224818;28;20285;-87
2022/06/14 11:28:26;;;;;;;3.35;2.10;;;;;;;27.57;30.92;98155.53;6222058;28;20455;-87
2022/06/14 11:31:53;;;;;;;2.88;2.08;;;;;;;26.81;32.39;98155.50;6213055;28;20235;-87
2022/06/14 11:35:11;;;;;;;3.65;2.08;;;;;;;27.37;32.97;98152.91;6229372;28;20315;-87
2022/06/14 11:38:41;;;;;;;2.95;2.00;;;;;;;27.81;32.18;98152.00;6230421;28;20347;-87
2022/06/14 11:41:47;;;;;;;2.97;1.63;;;;;;;28.37;32.04;98150.25;6204737;28;20230;-87
2022/06/14 11:45:03;;;;;;;3.58;2.22;;;;;;;28.86;30.39;98136.53;6207339;28;20241;-87
2022/06/14 11:48:17;;;;;;;5.15;2.25;;;;;;;28.63;29.95;98148.09;6213991;28;20224;-87
2022/06/14 11:51:27;;;;;;;5.30;2.30;;;;;;;27.72;31.29;98147.09;6228878;28;20228;-87
2022/06/14 11:54:44;;;;;;;4.35;2.00;;;;;;;28.21;30.23;98141.66;6229489;28;20224;-91
2022/06/14 11:57:53;;;;;;;2.42;2.03;;;;;;;28.36;31.31;98126.88;6228488;28;20651;-87
2022/06/14 12:01:24;;;;;;;2.50;1.80;;;;;;;28.00;31.64;98141.19;6212552;28;20240;-88
2022/06/14 12:04:53;;;;;;;3.55;1.95;;;;;;;27.07;31.10;98128.28;6161601;28;20237;-87
2022/06/14 12:08:39;;;;;;;3.88;2.13;;;;;;;27.44;32.75;98129.31;6177862;28;20761;-87
2022/06/14 12:11:49;;;;;;;3.45;1.88;;;;;;;28.09;30.34;98118.16;6121599;28;20229;-88
2022/06/14 12:14:54;;;;;;;4.03;2.22;;;;;;;27.49;30.55;98117.81;6147354;28;20249;-87
2022/06/14 12:18:01;;;;;;;5.32;2.22;;;;;;;27.63;31.17;98124.00;6178089;28;20233;-86
2022/06/14 12:21:24;;;;;;;3.10;1.90;;;;;;;27.37;32.60;98117.69;6179029;28;20243;-87
2022/06/14 12:28:08;;;;;;;2.70;1.88;;;;;;;28.97;31.28;98115.91;6153801;28;21096;-89
2022/06/14 12:31:35;;;;;;;3.80;1.92;;;;;;;29.31;30.66;98120.66;6158395;28;20242;-89
2022/06/14 12:34:43;;;;;;;2.88;1.73;;;;;;;30.26;28.71;98111.56;6158019;28;20241;-89
2022/06/14 12:37:47;;;;;;;1.98;1.58;;;;;;;30.56;28.34;98106.81;6153425;28;20226;-89
2022/06/14 12:40:50;;;;;;;3.83;2.10;;;;;;;30.01;27.60;98106.38;6182699;28;20243;-89
2022/06/14 12:44:13;;;;;;;2.00;1.60;;;;;;;29.58;29.91;98101.22;6186775;28;20577;-88
2022/06/14 12:47:24;;;;;;;5.95;2.13;;;;;;;29.65;29.77;98105.50;6203792;28;20277;-89
2022/06/14 12:50:35;;;;;;;2.83;2.20;;;;;;;29.65;29.75;98091.06;6207437;28;20701;-89
2022/06/14 12:53:53;;;;;;;2.80;1.90;;;;;;;28.52;29.38;98089.09;6195367;28;20232;-90
2022/06/14 12:57:23;;;;;;;3.00;1.88;;;;;;;28.54;29.37;98095.13;6212427;28;20319;-90
2022/06/14 13:01:15;;;;;;;3.42;2.10;;;;;;;28.06;29.20;98091.44;6183926;28;20303;-90
2022/06/14 13:04:24;;;;;;;4.70;1.63;;;;;;;27.63;31.50;98094.16;6156755;28;20715;-87
2022/06/14 13:08:04;;;;;;;2.85;1.70;;;;;;;28.64;31.07;98089.16;6193660;28;20236;-87
2022/06/14 13:11:20;;;;;;;2.88;1.88;;;;;;;29.34;30.63;98087.56;6211803;28;20362;-88
2022/06/14 13:14:29;;;;;;;3.15;2.15;;;;;;;29.23;30.09;98082.94;6195314;28;20239;-87
2022/06/14 13:17:50;;;;;;;3.30;2.10;;;;;;;29.64;28.91;98073.09;6212183;28;20320;-87
2022/06/14 13:21:17;;;;;;;6.82;2.35;;;;;;;29.45;28.73;98066.91;6211219;28;20235;-87
2022/06/14 13:24:43;;;;;;;4.25;2.03;;;;;;;29.28;30.25;98069.44;6189136;28;20604;-87
2022/06/14 13:28:04;;;;;;;2.78;1.80;;;;;;;29.47;29.08;98066.66;6211649;28;20238;-87
2022/06/14 13:31:21;;;;;;;2.65;2.00;;;;;;;30.16;28.60;98059.59;6215078;28;20228;-87
2022/06/14 13:34:45;;;;;;;4.47;2.03;;;;;;;30.15;27.93;98060.69;6210910;28;20236;-87
2022/06/14 13:38:11;;;;;;;1.83;1.60;;;;;;;29.47;29.06;98064.78;6210260;28;20232;-88
2022/06/14 13:41:41;;;;;;;3.47;1.77;;;;;;;30.14;28.54;98061.75;6219750;28;20282;-87
2022/06/14 13:45:08;;;;;;;4.60;1.83;;;;;;;30.88;27.45;98057.28;6214388;28;20365;-87
2022/06/14 13:48:24;;;;;;;2.30;1.80;;;;;;;30.76;27.84;98050.00;6214598;28;20687;-87
2022/06/14 13:51:35;;;;;;;1.75;1.63;;;;;;;31.31;27.49;98060.31;6215624;28;20253;-89
2022/06/14 13:55:04;;;;;;;4.13;2.25;;;;;;;31.69;26.76;98065.06;6215239;28;20232;-87
2022/06/14 13:58:22;;;;;;;3.63;2.00;;;;;;;32.17;25.19;98058.13;6231931;28;20316;-88
2022/06/14 14:01:38;;;;;;;3.00;1.90;;;;;;;32.19;25.86;98056.81;6196827;28;20319;-87
2022/06/14 14:05:14;;;;;;;4.68;1.95;;;;;;;32.97;23.81;98050.13;6215199;28;20239;-88
2022/06/14 14:08:24;;;;;;;3.70;1.70;;;;;;;33.99;23.05;98046.38;6214427;28;20235;-88
2022/06/14 14:11:44;;;;;;;2.30;1.90;;;;;;;34.76;22.79;98050.34;6198685;28;20318;-88
2022/06/14 14:15:18;;;;;;;3.03;1.80;;;;;;;34.41;22.22;98051.84;6206505;28;20604;-87
2022/06/14 14:18:59;;;;;;;4.35;2.05;;;;;;;34.38;21.93;98046.06;6190049;28;20279;-88
2022/06/14 14:22:11;;;;;;;3.60;1.92;;;;;;;34.62;22.74;98041.78;6191752;28;20252;-88
2022/06/14 14:25:19;;;;;;;2.08;1.80;;;;;;;35.97;20.99;98044.13;6214504;28;20266;-87
2022/06/14 14:29:03;;;;;;;6.18;1.92;;;;;;;37.06;20.26;98041.53;6189948;28;20361;-87
2022/06/14 14:32:15;;;;;;;2.90;1.80;;;;;;;36.93;19.71;98043.00;6190653;28;20236;-87
2022/06/14 14:35:22;;;;;;;3.33;1.88;;;;;;;37.62;19.70;98026.28;6206177;28;20363;-87
2022/06/14 14:38:38;;;;;;;4.40;2.00;;;;;;;37.39;19.74;98029.75;6205160;28;20235;-87
2022/06/14 14:41:48;;;;;;;2.55;1.83;;;;;;;37.83;19.52;98021.41;6228871;28;20224;-87
2022/06/14 14:44:57;;;;;;;1.52;1.42;;;;;;;37.85;19.04;98023.84;6231613;28;20278;-87
2022/06/14 14:48:32;;;;;;;3.55;1.83;;;;;;;36.89;19.96;98017.97;6231445;28;20224;-87
2022/06/14 14:51:34;;;;;;;3.42;1.70;;;;;;;35.85;20.22;98005.16;6229298;28;20303;-88
2022/06/14 14:54:36;;;;;;;5.13;1.88;;;;;;;33.90;23.26;98011.53;6230312;28;20232;-86
2022/06/14 14:58:11;;;;;;;2.92;1.95;;;;;;;34.33;23.46;98013.16;6205647;28;20217;-87
2022/06/14 15:05:22;;;;;;;7.63;2.20;;;;;;;35.27;22.33;98012.03;6220759;28;20309;-86
2022/06/14 15:08:44;;;;;;;2.90;2.38;;;;;;;34.41;23.04;98009.88;6229870;28;20646;-87
2022/06/14 15:11:54;;;;;;;4.05;1.80;;;;;;;34.49;23.56;98003.06;6229013;28;20228;-86
2022/06/14 15:15:15;;;;;;;3.00;2.05;;;;;;;35.98;21.21;98001.00;6222611;28;20260;-87
2022/06/14 15:21:52;;;;;;;4.30;2.10;;;;;;;34.90;22.84;97996.63;6231844;28;20307;-86
2022/06/14 15:24:59;;;;;;;5.63;1.88;;;;;;;35.41;21.68;97992.00;6230227;28;20317;-87
2022/06/14 15:28:07;;;;;;;2.85;1.83;;;;;;;35.99;21.92;97986.97;6230234;28;20227;-87
2022/06/14 15:31:29;;;;;;;2.40;1.73;;;;;;;37.04;20.81;97988.69;6238559;28;20230;-87
2022/06/14 15:34:44;;;;;;;3.30;1.52;;;;;;;38.44;20.49;97982.09;6236420;28;20243;-86
2022/06/14 15:38:14;;;;;;;2.53;1.83;;;;;;;38.39;20.71;97984.94;6238714;28;20276;-86
2022/06/14 15:41:28;;;;;;;3.17;2.08;;;;;;;38.01;18.90;97984.81;6236041;28;20330;-86
2022/06/14 15:44:32;;;;;;;2.80;1.55;;;;;;;38.04;20.00;97983.38;6213597;28;20818;-86
2022/06/14 15:47:40;;;;;;;3.25;1.67;;;;;;;36.31;19.88;97986.63;6229324;28;20722;-86
2022/06/14 15:50:45;;;;;;;2.58;1.92;;;;;;;35.51;22.55;97982.94;6229393;28;20235;-87
2022/06/14 15:53:52;;;;;;;2.20;1.88;;;;;;;34.63;23.93;97974.88;6231645;28;20277;-86
2022/06/14 15:57:19;;;;;;;3.80;1.88;;;;;;;34.75;22.87;97982.84;6228000;28;20234;-86
2022/06/14 16:00:26;;;;;;;3.38;1.77;;;;;;;34.82;23.76;97985.34;6228451;28;20231;-86
2022/06/14 16:03:36;;;;;;;2.90;1.90;;;;;;;34.86;23.66;97979.03;6228611;28;20541;-86
2022/06/14 16:06:52;;;;;;;5.10;1.75;;;;;;;34.78;23.37;97987.81;6214978;28;20228;-87
2022/06/14 16:09:59;;;;;;;2.72;1.90;;;;;;;35.03;22.50;97978.81;6214206;28;20228;-86
2022/06/14 16:13:10;;;;;;;2.58;1.80;;;;;;;35.44;22.00;97977.72;6235361;28;20246;-86
2022/06/14 16:16:30;;;;;;;2.10;1.55;;;;;;;36.38;22.96;97983.56;6236579;28;20245;-86
2022/06/14 16:19:36;;;;;;;2.00;1.60;;;;;;;36.50;22.66;97984.88;6254799;28;20251;-87
2022/06/14 16:22:38;;;;;;;1.90;1.70;;;;;;;36.82;22.45;97983.63;6236434;28;20262;-89